Orlando, FL (32829)

10:58 PM EST on December 07, 2016 (GMT -0500)
Quail trail | | Change Station

Elev 105 ft 28.50 °N, 81.28 °W | Updated 37 seconds ago

Partly Cloudy
Partly Cloudy
63.9 °F
Feels Like 63.9 °F
N
0.0
Wind Variable Wind from North

Today
High -- | Low -- °F
--% Chance of Precip.
Yesterday
High -- | Low -- °F
Precip. -- in
Pressure 30.11 in
Visibility 10.0 miles
Clouds Few 24000 ft
Dew Point 63 °F
Humidity 98%
Rainfall 0.00 in
Snow Depth Not available.
7:04 AM 5:28 PM
First Quarter, 59% visible
METAR KMCO 080353Z 32006KT 10SM FEW240 18/14 A3012 RMK AO2 SLP196 T01780144
Pressure 30.11 in
Visibility 10.0 miles
Clouds Few 24000 ft
Dew Point 63 °F
Humidity 98%
Rainfall 0.00 in
Snow Depth Not available.
7:04 AM 5:28 PM
First Quarter, 59% visible
METAR KMCO 080353Z 32006KT 10SM FEW240 18/14 A3012 RMK AO2 SLP196 T01780144

10-Day Weather Forecast

Almanac

Astronomy

Dec. 07, 2016 Rise Set
Actual Time
Civil Twilight
Nautical Twilight
Astronomical Twilight
Moon
Length of Visible Light
Length of Day
Tomorrow will be .
, % of the Moon is Illuminated

Today's Extremes

State Highs State Lows

Community

WunderPhotos

Upload Photos

1,956,259 photos uploaded!

WunderBlog® & News

Nearby

Air Quality

  Air Quality AQ Index Pollutant
Not available.

Snow Depth

Station Depth Elevation

Earthquake Activity

City Distance Mag. Time & Date
Minimum magnitude displayed is 2.5.

Coastal Water Temperatures

Place Temperature

Stations

Nearby Weather Stations

Station Location Temp. Windchill Dew Point Humidity Wind Precip. Elev Updated Type
                   

Watches & Warnings

There are currently no watches in effect.